Kirkby-in-Furness, United Kingdom
Current Conditions -  °F | °C
As of 8:50 PM on Wednesday 28 Jan 2015 (Local Time) from EGNH Reporting Station
Moderate Rain Moderate Rain  
Wind Chill: 24°   Ceiling: Unl
Heat Index: 37°   Visibility: 6mi
Dew Point: 32°   Wind: 37mph
Humidity: 81%   Direction: 270°W
Pressure: 29.35"   Gusts: 49mph
Location:  54.23°N, 3.19°W
Report Text: EGNH 282050Z 27032G43KT 9999 RA SCT020 03/00 Q0994
Loading
Personal Weather Stations






























Interactive Weather Map New forecast layout! Learn more

10-Day Weather Forecast

Advertisements
Track Severe Weather on mobile